createdAt,value
2022-12-05T00:01:22.576Z,13.07
2022-12-05T00:03:51.589Z,12.60
2022-12-05T00:06:19.829Z,13.77
2022-12-05T00:08:47.379Z,13.20
2022-12-05T00:11:17.377Z,14.57
2022-12-05T00:13:44.625Z,13.07
2022-12-05T00:16:14.219Z,13.50
2022-12-05T00:18:41.878Z,12.83
2022-12-05T00:21:12.947Z,11.93
2022-12-05T00:23:39.663Z,13.23
2022-12-05T00:26:06.856Z,12.37
2022-12-05T00:28:34.478Z,12.83
2022-12-05T00:31:05.981Z,12.87
2022-12-05T00:33:32.769Z,12.90
2022-12-05T00:36:08.134Z,12.43
2022-12-05T00:38:34.935Z,12.73
2022-12-05T00:41:09.553Z,12.83
2022-12-05T00:43:37.001Z,12.93
2022-12-05T00:46:15.508Z,11.83
2022-12-05T00:48:42.654Z,12.10
2022-12-05T00:51:12.813Z,12.00
2022-12-05T00:53:39.746Z,12.90
2022-12-05T00:56:11.800Z,13.40
2022-12-05T00:58:39.209Z,13.23
2022-12-05T01:01:11.009Z,12.80
2022-12-05T01:03:38.654Z,12.70
2022-12-05T01:06:06.408Z,12.70
2022-12-05T01:08:34.530Z,12.40
2022-12-05T01:11:02.384Z,13.23
2022-12-05T01:13:29.581Z,12.03
2022-12-05T01:15:56.553Z,12.97
2022-12-05T01:18:24.395Z,12.83
2022-12-05T01:20:52.008Z,13.43
2022-12-05T01:23:19.196Z,11.93
2022-12-05T01:25:48.949Z,12.30
2022-12-05T01:28:16.956Z,12.20
2022-12-05T01:30:46.544Z,11.87
2022-12-05T01:33:13.358Z,12.53
2022-12-05T01:35:40.924Z,12.60
2022-12-05T01:38:08.398Z,12.70
2022-12-05T01:40:38.493Z,12.73
2022-12-05T01:43:13.998Z,12.37
2022-12-05T01:45:44.177Z,12.57
2022-12-05T01:48:28.046Z,13.30
2022-12-05T01:50:55.240Z,11.97
2022-12-05T01:53:22.728Z,12.30
2022-12-05T01:55:50.848Z,11.70
2022-12-05T01:58:18.710Z,11.60
2022-12-05T02:00:45.967Z,11.30
2022-12-05T02:03:18.288Z,11.77
2022-12-05T02:05:48.555Z,12.00
2022-12-05T02:08:15.430Z,10.67
2022-12-05T02:10:48.638Z,12.23
2022-12-05T02:13:50.072Z,13.00
2022-12-05T02:16:36.429Z,12.80
2022-12-05T02:19:39.566Z,12.13
2022-12-05T02:22:46.173Z,11.40
2022-12-05T02:25:12.828Z,11.50
2022-12-05T02:28:25.677Z,11.43
2022-12-05T02:30:56.979Z,11.90
2022-12-05T02:33:46.220Z,11.97
2022-12-05T02:36:39.143Z,12.43
2022-12-05T02:39:22.654Z,11.87
2022-12-05T02:42:12.477Z,13.13
2022-12-05T02:45:00.143Z,13.20
2022-12-05T02:47:30.261Z,13.73
2022-12-05T02:49:58.113Z,12.67
2022-12-05T02:52:25.985Z,12.97
2022-12-05T02:54:54.990Z,12.73
2022-12-05T02:57:24.636Z,12.77
2022-12-05T02:59:51.719Z,13.80
2022-12-05T03:02:40.226Z,12.77
2022-12-05T03:05:27.828Z,11.73
2022-12-05T03:07:58.036Z,12.73
2022-12-05T03:10:27.845Z,12.20
2022-12-05T03:13:00.233Z,13.43
2022-12-05T03:15:31.984Z,12.10
2022-12-05T03:18:20.834Z,12.43
2022-12-05T03:20:53.956Z,13.07
2022-12-05T03:23:30.670Z,12.23
2022-12-05T03:26:14.347Z,13.40
2022-12-05T03:29:08.130Z,11.60
2022-12-05T03:31:42.329Z,12.30
2022-12-05T03:34:16.497Z,12.10
2022-12-05T03:36:48.585Z,12.07
2022-12-05T03:39:26.946Z,11.57
2022-12-05T03:42:03.064Z,11.60
2022-12-05T03:44:41.291Z,13.67
2022-12-05T03:47:16.674Z,12.73
2022-12-05T03:49:51.772Z,12.77
2022-12-05T03:52:23.854Z,12.23
2022-12-05T03:55:16.394Z,12.27
2022-12-05T03:57:48.793Z,12.27
2022-12-05T04:00:18.713Z,10.77
2022-12-05T04:03:07.328Z,11.80
2022-12-05T04:05:54.829Z,11.47
2022-12-05T04:08:34.480Z,12.83
2022-12-05T04:11:06.321Z,11.83
2022-12-05T04:13:51.847Z,12.37
2022-12-05T04:16:48.046Z,10.87
2022-12-05T04:19:26.891Z,10.93
2022-12-05T04:21:56.600Z,11.10
2022-12-05T04:24:47.071Z,10.00
2022-12-05T04:27:22.809Z,9.67
2022-12-05T04:30:03.568Z,9.77
2022-12-05T04:32:45.484Z,9.60
2022-12-05T04:35:20.612Z,10.23
2022-12-05T04:37:51.521Z,8.57
2022-12-05T04:40:23.434Z,9.27
2022-12-05T04:42:53.358Z,9.43
2022-12-05T04:45:22.825Z,8.77
2022-12-05T04:47:55.446Z,8.80
2022-12-05T04:50:24.243Z,8.93
2022-12-05T04:52:54.642Z,8.20
2022-12-05T04:55:26.107Z,8.63
2022-12-05T04:58:01.575Z,8.53
2022-12-05T05:00:30.649Z,8.00
2022-12-05T05:03:19.031Z,7.60
2022-12-05T05:05:49.301Z,8.53
2022-12-05T05:08:20.454Z,7.53
2022-12-05T05:11:04.266Z,7.80
2022-12-05T05:13:31.147Z,7.40
2022-12-05T05:15:57.896Z,9.00
2022-12-05T05:18:24.590Z,9.40
2022-12-05T05:20:51.320Z,8.87
2022-12-05T05:23:17.954Z,8.20
2022-12-05T05:25:44.652Z,8.90
2022-12-05T05:28:11.342Z,7.43
2022-12-05T05:30:38.022Z,7.87
2022-12-05T05:33:04.717Z,8.20
2022-12-05T05:35:31.362Z,8.60
2022-12-05T05:37:58.048Z,8.33
2022-12-05T05:40:24.768Z,7.13
2022-12-05T05:42:51.441Z,7.80
2022-12-05T05:45:18.129Z,7.97
2022-12-05T05:47:45.496Z,7.73
2022-12-05T05:50:17.862Z,7.83
2022-12-05T05:52:47.680Z,8.43
2022-12-05T05:55:15.145Z,8.57
2022-12-05T05:57:41.813Z,8.80
2022-12-05T06:00:09.252Z,8.77
2022-12-05T06:02:36.576Z,8.37
2022-12-05T06:05:04.526Z,10.35
2022-12-05T06:07:31.459Z,8.73
2022-12-05T06:09:58.442Z,9.20
2022-12-05T06:12:25.423Z,10.20
2022-12-05T06:14:52.640Z,10.57
2022-12-05T06:17:19.441Z,10.80
2022-12-05T06:19:46.215Z,10.30
2022-12-05T06:22:13.187Z,8.33
2022-12-05T06:24:39.891Z,9.23
2022-12-05T06:27:06.944Z,9.00
2022-12-05T06:29:35.562Z,8.50
2022-12-05T06:32:02.506Z,8.17
2022-12-05T06:34:29.465Z,8.43
2022-12-05T06:36:56.130Z,8.50
2022-12-05T06:39:22.869Z,8.57
2022-12-05T06:41:49.582Z,8.37
2022-12-05T06:44:16.582Z,7.47
2022-12-05T06:46:43.297Z,6.77
2022-12-05T06:49:10.559Z,7.03
2022-12-05T06:51:37.326Z,7.97
2022-12-05T06:54:04.131Z,6.97
2022-12-05T06:56:30.926Z,7.90
2022-12-05T06:58:58.000Z,7.77
2022-12-05T07:01:41.480Z,7.83
2022-12-05T07:04:21.463Z,7.37
2022-12-05T07:06:51.483Z,6.33
2022-12-05T07:09:21.181Z,7.00
2022-12-05T07:11:51.319Z,6.83
2022-12-05T07:14:45.337Z,7.27
2022-12-05T07:17:05.259Z,7.17
2022-12-05T07:19:32.291Z,7.00
2022-12-05T07:21:58.946Z,7.73
2022-12-05T07:24:26.001Z,7.67
2022-12-05T07:26:52.734Z,7.17
2022-12-05T07:29:19.828Z,7.23
2022-12-05T07:31:46.529Z,7.00
2022-12-05T07:34:13.346Z,7.33
2022-12-05T07:36:40.037Z,7.37
2022-12-05T07:39:06.741Z,6.70
2022-12-05T07:41:34.968Z,7.83
2022-12-05T07:44:06.688Z,6.97
2022-12-05T07:46:33.367Z,7.57
2022-12-05T07:49:00.129Z,7.50
2022-12-05T07:51:26.767Z,6.17
2022-12-05T07:53:53.535Z,7.10
2022-12-05T07:56:21.562Z,6.73
2022-12-05T07:58:50.036Z,7.17
2022-12-05T08:01:25.408Z,6.50
2022-12-05T08:03:56.993Z,6.27
2022-12-05T08:06:27.422Z,7.30
2022-12-05T08:08:55.135Z,6.93
2022-12-05T08:11:27.512Z,6.43
2022-12-05T08:13:54.688Z,6.80
2022-12-05T08:16:23.919Z,7.57
2022-12-05T08:18:59.058Z,6.60
2022-12-05T08:21:25.840Z,7.20
2022-12-05T08:23:52.836Z,7.03
2022-12-05T08:26:28.276Z,8.40
2022-12-05T08:28:59.175Z,8.23
2022-12-05T08:31:30.173Z,7.73
2022-12-05T08:33:59.331Z,8.63
2022-12-05T08:36:28.460Z,7.53
2022-12-05T08:39:00.341Z,8.73
2022-12-05T08:41:29.814Z,7.70
2022-12-05T08:43:58.230Z,8.20
2022-12-05T08:46:25.008Z,8.07
2022-12-05T08:48:52.093Z,8.40
2022-12-05T08:51:18.773Z,8.83
2022-12-05T08:53:45.605Z,9.60
2022-12-05T08:56:12.649Z,9.07
2022-12-05T08:58:40.115Z,8.87
2022-12-05T09:01:09.407Z,8.30
2022-12-05T09:03:36.405Z,8.73
2022-12-05T09:06:12.364Z,8.13
2022-12-05T09:08:39.782Z,8.83
2022-12-05T09:11:13.367Z,8.20
2022-12-05T09:13:40.355Z,8.50
2022-12-05T09:16:12.273Z,9.30
2022-12-05T09:18:39.070Z,9.17
2022-12-05T09:21:11.864Z,13.20
2022-12-05T09:23:39.174Z,11.47
2022-12-05T09:26:10.897Z,11.23
2022-12-05T09:28:38.369Z,9.77
2022-12-05T09:31:08.445Z,9.60
2022-12-05T09:33:37.244Z,10.13
2022-12-05T09:36:17.082Z,10.40
2022-12-05T09:38:44.318Z,10.67
2022-12-05T09:41:59.485Z,10.63
2022-12-05T09:44:53.896Z,10.43
2022-12-05T09:47:26.237Z,10.37
2022-12-05T09:50:12.714Z,9.70
2022-12-05T09:52:43.652Z,9.50
2022-12-05T09:55:14.744Z,11.43
2022-12-05T09:57:48.312Z,10.93
2022-12-05T10:00:15.616Z,10.40
2022-12-05T10:02:59.849Z,9.63
2022-12-05T10:05:53.777Z,10.60
2022-12-05T10:08:33.409Z,11.30
2022-12-05T10:11:04.945Z,11.30
2022-12-05T10:14:02.529Z,10.47
2022-12-05T10:16:31.572Z,10.10
2022-12-05T10:19:11.067Z,10.43
2022-12-05T10:22:00.974Z,13.10
2022-12-05T10:24:51.423Z,11.40
2022-12-05T10:27:40.899Z,11.13
2022-12-05T10:30:17.699Z,10.57
2022-12-05T10:32:54.553Z,10.73
2022-12-05T10:35:28.084Z,10.03
2022-12-05T10:38:04.229Z,11.57
2022-12-05T10:40:37.531Z,10.37
2022-12-05T10:43:08.859Z,9.97
2022-12-05T10:45:48.041Z,10.60
2022-12-05T10:48:17.654Z,10.93
2022-12-05T10:50:48.411Z,11.50
2022-12-05T10:53:23.562Z,12.83
2022-12-05T10:56:28.242Z,13.73
2022-12-05T10:58:56.495Z,14.30
2022-12-05T11:01:25.554Z,11.47
2022-12-05T11:04:01.728Z,11.43
2022-12-05T11:06:31.646Z,11.13
2022-12-05T11:09:13.648Z,10.97
2022-12-05T11:11:40.442Z,11.10
2022-12-05T11:14:21.614Z,14.90
2022-12-05T11:16:55.190Z,14.40
2022-12-05T11:19:21.800Z,11.70
2022-12-05T11:21:51.679Z,10.67
2022-12-05T11:24:32.531Z,11.00
2022-12-05T11:27:17.760Z,9.97
2022-12-05T11:30:10.067Z,10.40
2022-12-05T11:32:36.734Z,10.03
2022-12-05T11:35:12.228Z,10.20
2022-12-05T11:38:01.143Z,13.60
2022-12-05T11:40:38.357Z,12.40
2022-12-05T11:43:39.016Z,9.40
2022-12-05T11:46:48.416Z,9.40
2022-12-05T11:49:18.145Z,8.50
2022-12-05T11:51:53.906Z,8.87
2022-12-05T11:55:06.459Z,8.40
2022-12-05T11:57:39.728Z,8.30
2022-12-05T12:00:12.391Z,8.00
2022-12-05T12:03:00.335Z,8.37
2022-12-05T12:05:33.419Z,8.27
2022-12-05T12:08:18.711Z,8.67
2022-12-05T12:11:23.957Z,7.20
2022-12-05T12:14:20.452Z,7.43
2022-12-05T12:17:16.442Z,6.70
2022-12-05T12:19:43.078Z,7.57
2022-12-05T12:22:27.806Z,8.30
2022-12-05T12:25:19.646Z,7.07
2022-12-05T12:28:04.155Z,8.13
2022-12-05T12:31:20.884Z,10.63
2022-12-05T12:33:54.968Z,9.93
2022-12-05T12:36:38.953Z,8.10
2022-12-05T12:39:26.997Z,8.53
2022-12-05T12:42:14.789Z,5.97
2022-12-05T12:45:13.009Z,5.40
2022-12-05T12:47:44.819Z,5.27
2022-12-05T12:50:11.631Z,4.60
2022-12-05T12:52:58.630Z,4.93
2022-12-05T12:55:38.569Z,5.53
2022-12-05T12:58:19.751Z,7.53
2022-12-05T13:01:04.542Z,5.90
2022-12-05T13:03:40.705Z,5.17
2022-12-05T13:06:17.609Z,5.67
2022-12-05T13:08:56.249Z,5.67
2022-12-05T13:11:23.728Z,5.30
2022-12-05T13:13:56.578Z,5.83
2022-12-05T13:16:32.306Z,4.67
2022-12-05T13:19:00.001Z,4.23
2022-12-05T13:21:27.954Z,4.07
2022-12-05T13:23:59.178Z,3.53
2022-12-05T13:26:25.968Z,4.23
2022-12-05T13:29:05.051Z,4.03
2022-12-05T13:31:37.560Z,3.60
2022-12-05T13:34:04.448Z,3.67
2022-12-05T13:36:58.945Z,2.57
2022-12-05T13:39:44.351Z,3.00
2022-12-05T13:42:24.421Z,3.27
2022-12-05T13:44:58.177Z,2.80
2022-12-05T13:48:12.573Z,2.60
2022-12-05T13:50:54.124Z,4.43
2022-12-05T13:53:37.434Z,2.57
2022-12-05T13:56:12.971Z,1.77
2022-12-05T13:58:46.802Z,2.33
2022-12-05T14:01:30.767Z,2.40
2022-12-05T14:04:00.299Z,2.00
2022-12-05T14:06:38.649Z,2.00
2022-12-05T14:09:17.599Z,1.80
2022-12-05T14:12:12.253Z,1.47
2022-12-05T14:14:57.369Z,2.53
2022-12-05T14:17:41.054Z,2.03
2022-12-05T14:20:22.402Z,2.23
2022-12-05T14:23:15.164Z,2.40
2022-12-05T14:26:11.014Z,1.90
2022-12-05T14:28:46.594Z,1.60
2022-12-05T14:31:54.983Z,2.00
2022-12-05T14:34:30.826Z,2.20
2022-12-05T14:37:05.800Z,2.00
2022-12-05T14:39:37.812Z,2.53
2022-12-05T14:42:19.705Z,2.80
2022-12-05T14:44:48.711Z,2.13
2022-12-05T14:47:21.691Z,1.97
2022-12-05T14:49:55.789Z,2.60
2022-12-05T14:52:25.836Z,2.30
2022-12-05T14:54:55.085Z,2.73
2022-12-05T14:57:22.907Z,2.70
2022-12-05T14:59:53.970Z,2.20
2022-12-05T15:02:27.687Z,2.13
2022-12-05T15:05:15.298Z,2.30
2022-12-05T15:07:44.005Z,1.90
2022-12-05T15:10:11.049Z,2.07
2022-12-05T15:12:48.481Z,1.87
2022-12-05T15:15:29.900Z,2.57
2022-12-05T15:18:21.372Z,3.17
2022-12-05T15:21:08.743Z,2.60
2022-12-05T15:23:55.507Z,2.30
2022-12-05T15:26:47.297Z,2.33
2022-12-05T15:29:26.879Z,4.57
2022-12-05T15:31:59.142Z,9.63
2022-12-05T15:34:31.634Z,12.10
2022-12-05T15:37:16.640Z,12.90
2022-12-05T15:39:53.796Z,6.13
2022-12-05T15:42:30.183Z,7.07
2022-12-05T15:45:15.074Z,7.53
2022-12-05T15:47:50.922Z,8.53
2022-12-05T15:50:35.534Z,4.90
2022-12-05T15:53:25.231Z,3.10
2022-12-05T15:55:56.356Z,2.63
2022-12-05T15:58:55.321Z,2.87
2022-12-05T16:01:24.365Z,4.33
2022-12-05T16:04:02.551Z,6.00
2022-12-05T16:06:31.701Z,5.30
2022-12-05T16:09:00.190Z,5.83
2022-12-05T16:11:27.191Z,4.90
2022-12-05T16:14:00.898Z,4.20
2022-12-05T16:16:32.223Z,4.27
2022-12-05T16:19:04.718Z,3.27
2022-12-05T16:21:41.636Z,2.80
2022-12-05T16:24:21.551Z,2.77
2022-12-05T16:27:01.756Z,2.30
2022-12-05T16:29:31.053Z,2.43
2022-12-05T16:32:02.416Z,7.00
2022-12-05T16:34:33.241Z,6.53
2022-12-05T16:37:00.604Z,3.20
2022-12-05T16:39:28.452Z,3.20
2022-12-05T16:41:55.399Z,3.07
2022-12-05T16:44:31.756Z,3.27
2022-12-05T16:46:58.614Z,3.37
2022-12-05T16:49:33.234Z,3.20
2022-12-05T16:52:09.116Z,2.97
2022-12-05T16:54:35.947Z,3.23
2022-12-05T16:57:03.988Z,3.00
2022-12-05T16:59:38.894Z,2.83
2022-12-05T17:02:11.799Z,3.27
2022-12-05T17:04:38.840Z,3.23
2022-12-05T17:07:05.661Z,3.30
2022-12-05T17:09:32.386Z,3.67
2022-12-05T17:12:18.531Z,3.73
2022-12-05T17:14:47.056Z,4.10
2022-12-05T17:17:15.735Z,2.93
2022-12-05T17:19:42.998Z,3.20
2022-12-05T17:22:12.001Z,3.30
2022-12-05T17:24:38.678Z,3.50
2022-12-05T17:27:14.531Z,3.30
2022-12-05T17:29:41.208Z,2.90
2022-12-05T17:32:10.126Z,3.20
2022-12-05T17:34:36.795Z,3.47
2022-12-05T17:37:03.466Z,3.57
2022-12-05T17:39:30.097Z,3.50
2022-12-05T17:41:56.827Z,3.43
2022-12-05T17:44:24.007Z,3.40
2022-12-05T17:46:50.856Z,3.23
2022-12-05T17:49:18.252Z,3.50
2022-12-05T17:52:13.534Z,4.43
2022-12-05T17:54:31.828Z,3.33
2022-12-05T17:56:58.534Z,3.23
2022-12-05T17:59:25.194Z,2.93
2022-12-05T18:01:51.860Z,6.83
2022-12-05T18:04:22.835Z,8.53
2022-12-05T18:06:50.328Z,12.00
2022-12-05T18:09:17.023Z,4.30
2022-12-05T18:11:43.698Z,4.67
2022-12-05T18:14:10.510Z,4.33
2022-12-05T18:16:37.650Z,12.03
2022-12-05T18:19:04.444Z,6.10
2022-12-05T18:21:31.232Z,6.17
2022-12-05T18:23:57.967Z,6.10
2022-12-05T18:26:24.651Z,5.67
2022-12-05T18:28:53.644Z,5.40
2022-12-05T18:31:20.356Z,5.13
2022-12-05T18:33:47.064Z,5.50
2022-12-05T18:36:17.981Z,6.73
2022-12-05T18:38:51.307Z,7.00
2022-12-05T18:41:18.070Z,6.83
2022-12-05T18:43:44.757Z,6.27
2022-12-05T18:46:11.742Z,4.53
2022-12-05T18:48:41.403Z,4.07
2022-12-05T18:51:17.115Z,3.93
2022-12-05T18:53:51.434Z,4.20
2022-12-05T18:56:22.644Z,4.00
2022-12-05T18:58:58.869Z,3.60
2022-12-05T19:01:27.274Z,4.23
2022-12-05T19:03:55.953Z,4.17
2022-12-05T19:06:24.791Z,4.63
2022-12-05T19:08:55.101Z,4.17
2022-12-05T19:11:22.775Z,4.33
2022-12-05T19:13:50.045Z,26.57
2022-12-05T19:16:18.438Z,7.10
2022-12-05T19:18:46.055Z,3.90
2022-12-05T19:21:13.330Z,3.83
2022-12-05T19:23:40.132Z,5.00
2022-12-05T19:26:08.294Z,6.30
2022-12-05T19:28:36.628Z,5.40
2022-12-05T19:31:09.253Z,4.93
2022-12-05T19:33:47.014Z,4.70
2022-12-05T19:36:19.771Z,3.77
2022-12-05T19:38:48.202Z,3.20
2022-12-05T19:41:17.029Z,3.70
2022-12-05T19:43:45.046Z,3.07
2022-12-05T19:46:27.562Z,3.10
2022-12-05T19:48:59.582Z,2.73
2022-12-05T19:51:26.419Z,3.00
2022-12-05T19:53:53.176Z,3.37
2022-12-05T19:56:25.181Z,3.23
2022-12-05T19:58:53.681Z,3.10
2022-12-05T20:01:21.846Z,3.00
2022-12-05T20:03:53.507Z,3.50
2022-12-05T20:06:20.965Z,4.90
2022-12-05T20:08:48.703Z,5.07
2022-12-05T20:11:17.833Z,4.50
2022-12-05T20:13:47.307Z,5.20
2022-12-05T20:16:18.545Z,4.47
2022-12-05T20:18:45.922Z,4.07
2022-12-05T20:21:14.890Z,4.10
2022-12-05T20:23:42.097Z,6.23
2022-12-05T20:26:14.743Z,4.73
2022-12-05T20:28:42.026Z,4.23
2022-12-05T20:31:23.387Z,4.87
2022-12-05T20:33:51.894Z,3.90
2022-12-05T20:36:24.078Z,3.77
2022-12-05T20:38:59.064Z,4.10
2022-12-05T20:41:26.744Z,4.53
2022-12-05T20:43:56.855Z,3.83
2022-12-05T20:46:24.092Z,4.07
2022-12-05T20:48:53.084Z,4.07
2022-12-05T20:51:22.333Z,4.30
2022-12-05T20:53:49.488Z,3.70
2022-12-05T20:56:19.121Z,4.33
2022-12-05T20:58:51.476Z,4.60
2022-12-05T21:01:20.323Z,4.37
2022-12-05T21:03:49.670Z,3.53
2022-12-05T21:06:31.313Z,3.33
2022-12-05T21:08:59.141Z,3.73
2022-12-05T21:11:27.382Z,3.23
2022-12-05T21:14:00.244Z,3.87
2022-12-05T21:16:27.619Z,3.40
2022-12-05T21:18:55.915Z,3.57
2022-12-05T21:21:24.669Z,3.30
2022-12-05T21:23:55.610Z,4.97
2022-12-05T21:26:23.325Z,3.23
2022-12-05T21:28:50.123Z,3.10
2022-12-05T21:31:26.742Z,2.67
2022-12-05T21:33:56.144Z,3.30
2022-12-05T21:36:24.148Z,2.60
2022-12-05T21:38:55.946Z,2.60
2022-12-05T21:41:27.012Z,2.37
2022-12-05T21:43:55.634Z,2.03
2022-12-05T21:46:24.724Z,2.20
2022-12-05T21:48:51.689Z,2.00
2022-12-05T21:51:18.405Z,1.90
2022-12-05T21:53:45.051Z,1.80
2022-12-05T21:56:17.223Z,1.93
2022-12-05T21:58:45.857Z,1.93
2022-12-05T22:01:19.811Z,2.10
2022-12-05T22:03:46.947Z,1.60
2022-12-05T22:06:15.248Z,1.60
2022-12-05T22:08:42.054Z,2.03
2022-12-05T22:11:12.107Z,2.33
2022-12-05T22:13:39.361Z,1.83
2022-12-05T22:16:07.522Z,2.00
2022-12-05T22:18:35.090Z,1.87
2022-12-05T22:21:12.749Z,2.07
2022-12-05T22:23:39.541Z,2.20
2022-12-05T22:26:15.161Z,2.20
2022-12-05T22:28:41.803Z,1.80
2022-12-05T22:31:11.552Z,2.33
2022-12-05T22:33:38.660Z,2.57
2022-12-05T22:36:08.451Z,2.53
2022-12-05T22:38:37.426Z,2.57
2022-12-05T22:41:07.208Z,2.70
2022-12-05T22:43:35.996Z,2.40
2022-12-05T22:46:06.656Z,2.40
2022-12-05T22:48:34.239Z,2.57
2022-12-05T22:51:02.716Z,2.53
2022-12-05T22:53:30.090Z,2.93
2022-12-05T22:56:09.569Z,3.00
2022-12-05T22:58:36.897Z,3.00
2022-12-05T23:01:10.658Z,2.60
2022-12-05T23:03:37.742Z,2.63
2022-12-05T23:06:11.206Z,2.60
2022-12-05T23:08:39.833Z,2.83
2022-12-05T23:11:07.055Z,2.37
2022-12-05T23:13:34.929Z,2.90
2022-12-05T23:16:07.239Z,3.03
2022-12-05T23:18:46.637Z,2.90
2022-12-05T23:21:19.736Z,3.07
2022-12-05T23:23:47.873Z,3.00
2022-12-05T23:26:18.467Z,3.17
2022-12-05T23:28:45.517Z,2.63
2022-12-05T23:31:12.806Z,2.70
2022-12-05T23:33:40.234Z,2.80
2022-12-05T23:36:08.033Z,2.70
2022-12-05T23:38:36.014Z,2.83
2022-12-05T23:41:08.761Z,3.23
2022-12-05T23:43:36.654Z,2.90
2022-12-05T23:46:05.397Z,2.90
2022-12-05T23:48:32.415Z,2.87
2022-12-05T23:51:05.254Z,2.57
2022-12-05T23:53:33.811Z,2.60
2022-12-05T23:56:02.830Z,3.43
2022-12-05T23:58:31.001Z,3.30
